sensor_id;sensor_type;location;lat;lon;timestamp;temperature;humidity
36384;DHT22;22418;51.210;6.976;2023-02-01T00:00:34;8.20;99.90
36384;DHT22;22418;51.210;6.976;2023-02-01T00:03:04;8.20;99.90
36384;DHT22;22418;51.210;6.976;2023-02-01T00:05:35;8.20;99.90
36384;DHT22;22418;51.210;6.976;2023-02-01T00:08:06;8.20;99.90
36384;DHT22;22418;51.210;6.976;2023-02-01T00:10:36;8.10;99.90
36384;DHT22;22418;51.210;6.976;2023-02-01T00:13:07;8.10;99.90
36384;DHT22;22418;51.210;6.976;2023-02-01T00:15:37;8.10;99.90
36384;DHT22;22418;51.210;6.976;2023-02-01T00:18:08;8.10;99.90
36384;DHT22;22418;51.210;6.976;2023-02-01T00:20:39;8.00;99.90
36384;DHT22;22418;51.210;6.976;2023-02-01T00:23:09;8.10;99.90
36384;DHT22;22418;51.210;6.976;2023-02-01T00:25:40;8.20;99.90
36384;DHT22;22418;51.210;6.976;2023-02-01T00:28:10;8.20;99.90
36384;DHT22;22418;51.210;6.976;2023-02-01T00:30:43;8.20;99.90
36384;DHT22;22418;51.210;6.976;2023-02-01T00:33:13;8.10;99.90
36384;DHT22;22418;51.210;6.976;2023-02-01T00:35:44;8.10;99.90
36384;DHT22;22418;51.210;6.976;2023-02-01T00:38:14;8.10;99.90
36384;DHT22;22418;51.210;6.976;2023-02-01T00:40:45;8.20;99.90
36384;DHT22;22418;51.210;6.976;2023-02-01T00:43:15;8.10;99.90
36384;DHT22;22418;51.210;6.976;2023-02-01T00:45:46;8.10;99.90
36384;DHT22;22418;51.210;6.976;2023-02-01T00:48:17;8.10;99.90
36384;DHT22;22418;51.210;6.976;2023-02-01T00:50:47;8.10;99.90
36384;DHT22;22418;51.210;6.976;2023-02-01T00:53:18;8.10;99.90
36384;DHT22;22418;51.210;6.976;2023-02-01T00:55:49;8.10;99.90
36384;DHT22;22418;51.210;6.976;2023-02-01T00:58:19;8.20;99.90
36384;DHT22;22418;51.210;6.976;2023-02-01T01:00:50;8.20;99.90
36384;DHT22;22418;51.210;6.976;2023-02-01T01:03:20;8.20;99.90
36384;DHT22;22418;51.210;6.976;2023-02-01T01:05:51;8.30;99.90
36384;DHT22;22418;51.210;6.976;2023-02-01T01:08:21;8.30;99.90
36384;DHT22;22418;51.210;6.976;2023-02-01T01:10:52;8.20;99.90
36384;DHT22;22418;51.210;6.976;2023-02-01T01:13:23;8.20;99.90
36384;DHT22;22418;51.210;6.976;2023-02-01T01:15:54;8.10;99.90
36384;DHT22;22418;51.210;6.976;2023-02-01T01:18:24;8.10;99.90
36384;DHT22;22418;51.210;6.976;2023-02-01T01:20:55;8.10;99.90
36384;DHT22;22418;51.210;6.976;2023-02-01T01:23:25;8.10;99.90
36384;DHT22;22418;51.210;6.976;2023-02-01T01:25:56;8.10;99.90
36384;DHT22;22418;51.210;6.976;2023-02-01T01:28:27;8.00;99.90
36384;DHT22;22418;51.210;6.976;2023-02-01T01:30:57;8.00;99.90
36384;DHT22;22418;51.210;6.976;2023-02-01T01:33:28;8.10;99.90
36384;DHT22;22418;51.210;6.976;2023-02-01T01:36:01;8.10;99.90
36384;DHT22;22418;51.210;6.976;2023-02-01T01:38:32;8.10;99.90
36384;DHT22;22418;51.210;6.976;2023-02-01T01:41:02;8.10;99.90
36384;DHT22;22418;51.210;6.976;2023-02-01T01:43:55;8.00;99.90
36384;DHT22;22418;51.210;6.976;2023-02-01T01:46:36;8.10;99.90
36384;DHT22;22418;51.210;6.976;2023-02-01T01:49:09;8.00;99.90
36384;DHT22;22418;51.210;6.976;2023-02-01T01:51:46;8.00;99.90
36384;DHT22;22418;51.210;6.976;2023-02-01T01:54:31;8.00;99.90
36384;DHT22;22418;51.210;6.976;2023-02-01T01:57:16;8.00;99.90
36384;DHT22;22418;51.210;6.976;2023-02-01T01:59:58;8.00;99.90
36384;DHT22;22418;51.210;6.976;2023-02-01T02:02:30;7.90;99.90
36384;DHT22;22418;51.210;6.976;2023-02-01T02:05:00;7.90;99.90
36384;DHT22;22418;51.210;6.976;2023-02-01T02:07:39;8.00;99.90
36384;DHT22;22418;51.210;6.976;2023-02-01T02:10:12;8.00;99.90
36384;DHT22;22418;51.210;6.976;2023-02-01T02:12:45;8.00;99.90
36384;DHT22;22418;51.210;6.976;2023-02-01T02:15:17;7.90;99.90
36384;DHT22;22418;51.210;6.976;2023-02-01T02:18:19;7.90;99.90
36384;DHT22;22418;51.210;6.976;2023-02-01T02:21:02;7.90;99.90
36384;DHT22;22418;51.210;6.976;2023-02-01T02:26:48;7.80;99.90
36384;DHT22;22418;51.210;6.976;2023-02-01T02:40:49;7.80;99.90
36384;DHT22;22418;51.210;6.976;2023-02-01T02:43:47;7.70;99.90
36384;DHT22;22418;51.210;6.976;2023-02-01T02:46:38;7.70;99.90
36384;DHT22;22418;51.210;6.976;2023-02-01T02:49:39;7.70;99.90
36384;DHT22;22418;51.210;6.976;2023-02-01T02:52:15;7.80;99.90
36384;DHT22;22418;51.210;6.976;2023-02-01T02:55:07;7.70;99.90
36384;DHT22;22418;51.210;6.976;2023-02-01T02:57:40;7.80;99.90
36384;DHT22;22418;51.210;6.976;2023-02-01T03:00:31;7.80;99.90
36384;DHT22;22418;51.210;6.976;2023-02-01T03:03:21;7.80;99.90
36384;DHT22;22418;51.210;6.976;2023-02-01T03:06:15;7.70;99.90
36384;DHT22;22418;51.210;6.976;2023-02-01T03:08:47;7.80;99.90
36384;DHT22;22418;51.210;6.976;2023-02-01T03:11:18;7.70;99.90
36384;DHT22;22418;51.210;6.976;2023-02-01T03:13:52;7.70;99.90
36384;DHT22;22418;51.210;6.976;2023-02-01T03:19:27;7.60;99.90
36384;DHT22;22418;51.210;6.976;2023-02-01T03:22:08;7.70;99.90
36384;DHT22;22418;51.210;6.976;2023-02-01T03:24:45;7.70;99.90
36384;DHT22;22418;51.210;6.976;2023-02-01T03:27:40;7.80;99.90
36384;DHT22;22418;51.210;6.976;2023-02-01T03:30:22;7.80;99.90
36384;DHT22;22418;51.210;6.976;2023-02-01T03:32:54;7.80;99.90
36384;DHT22;22418;51.210;6.976;2023-02-01T03:35:54;7.80;99.90
36384;DHT22;22418;51.210;6.976;2023-02-01T03:46:22;7.80;99.90
36384;DHT22;22418;51.210;6.976;2023-02-01T03:48:55;7.80;99.90
36384;DHT22;22418;51.210;6.976;2023-02-01T03:51:26;7.80;99.90
36384;DHT22;22418;51.210;6.976;2023-02-01T03:53:57;7.80;99.90
36384;DHT22;22418;51.210;6.976;2023-02-01T03:56:29;7.80;99.90
36384;DHT22;22418;51.210;6.976;2023-02-01T03:59:00;7.80;99.90
36384;DHT22;22418;51.210;6.976;2023-02-01T04:01:31;7.80;99.90
36384;DHT22;22418;51.210;6.976;2023-02-01T04:04:02;7.80;99.90
36384;DHT22;22418;51.210;6.976;2023-02-01T04:06:33;7.90;99.90
36384;DHT22;22418;51.210;6.976;2023-02-01T04:09:03;7.90;99.90
36384;DHT22;22418;51.210;6.976;2023-02-01T04:11:34;7.90;99.90
36384;DHT22;22418;51.210;6.976;2023-02-01T04:14:04;7.90;99.90
36384;DHT22;22418;51.210;6.976;2023-02-01T04:16:35;7.80;99.90
36384;DHT22;22418;51.210;6.976;2023-02-01T04:19:05;7.80;99.90
36384;DHT22;22418;51.210;6.976;2023-02-01T04:21:36;7.80;99.90
36384;DHT22;22418;51.210;6.976;2023-02-01T04:24:07;7.90;99.90
36384;DHT22;22418;51.210;6.976;2023-02-01T04:26:38;7.90;99.90
36384;DHT22;22418;51.210;6.976;2023-02-01T04:29:09;7.90;99.90
36384;DHT22;22418;51.210;6.976;2023-02-01T04:31:40;7.80;99.90
36384;DHT22;22418;51.210;6.976;2023-02-01T04:34:11;7.80;99.90
36384;DHT22;22418;51.210;6.976;2023-02-01T04:36:42;7.70;99.90
36384;DHT22;22418;51.210;6.976;2023-02-01T04:39:12;7.70;99.90
36384;DHT22;22418;51.210;6.976;2023-02-01T04:41:43;7.70;99.90
36384;DHT22;22418;51.210;6.976;2023-02-01T04:44:16;7.70;99.90
36384;DHT22;22418;51.210;6.976;2023-02-01T04:46:47;7.70;99.90
36384;DHT22;22418;51.210;6.976;2023-02-01T04:49:17;7.70;99.90
36384;DHT22;22418;51.210;6.976;2023-02-01T04:51:48;7.70;99.90
36384;DHT22;22418;51.210;6.976;2023-02-01T04:54:18;7.80;99.90
36384;DHT22;22418;51.210;6.976;2023-02-01T04:56:49;7.80;99.90
36384;DHT22;22418;51.210;6.976;2023-02-01T04:59:19;7.80;99.90
36384;DHT22;22418;51.210;6.976;2023-02-01T05:01:50;7.90;99.90
36384;DHT22;22418;51.210;6.976;2023-02-01T05:04:20;7.90;99.90
36384;DHT22;22418;51.210;6.976;2023-02-01T05:06:51;7.80;99.90
36384;DHT22;22418;51.210;6.976;2023-02-01T05:09:22;7.80;99.90
36384;DHT22;22418;51.210;6.976;2023-02-01T05:11:52;7.80;99.90
36384;DHT22;22418;51.210;6.976;2023-02-01T05:14:41;7.90;99.90
36384;DHT22;22418;51.210;6.976;2023-02-01T05:17:12;7.80;99.90
36384;DHT22;22418;51.210;6.976;2023-02-01T05:19:42;7.70;99.90
36384;DHT22;22418;51.210;6.976;2023-02-01T05:22:13;7.80;99.90
36384;DHT22;22418;51.210;6.976;2023-02-01T05:24:44;7.80;99.90
36384;DHT22;22418;51.210;6.976;2023-02-01T05:27:14;7.80;99.90
36384;DHT22;22418;51.210;6.976;2023-02-01T05:29:45;7.90;99.90
36384;DHT22;22418;51.210;6.976;2023-02-01T05:32:15;7.80;99.90
36384;DHT22;22418;51.210;6.976;2023-02-01T05:34:46;7.70;99.90
36384;DHT22;22418;51.210;6.976;2023-02-01T05:37:16;7.70;99.90
36384;DHT22;22418;51.210;6.976;2023-02-01T05:39:47;7.70;99.90
36384;DHT22;22418;51.210;6.976;2023-02-01T05:42:17;7.70;99.90
36384;DHT22;22418;51.210;6.976;2023-02-01T05:44:48;7.60;99.90
36384;DHT22;22418;51.210;6.976;2023-02-01T05:47:18;7.70;99.90
36384;DHT22;22418;51.210;6.976;2023-02-01T05:49:50;7.80;99.90
36384;DHT22;22418;51.210;6.976;2023-02-01T05:52:21;7.80;99.90
36384;DHT22;22418;51.210;6.976;2023-02-01T05:54:51;7.80;99.90
36384;DHT22;22418;51.210;6.976;2023-02-01T05:57:23;7.70;99.90
36384;DHT22;22418;51.210;6.976;2023-02-01T05:59:53;7.70;99.90
36384;DHT22;22418;51.210;6.976;2023-02-01T06:02:24;7.70;99.90
36384;DHT22;22418;51.210;6.976;2023-02-01T06:04:54;7.70;99.90
36384;DHT22;22418;51.210;6.976;2023-02-01T06:07:25;7.70;99.90
36384;DHT22;22418;51.210;6.976;2023-02-01T06:09:55;7.80;99.90
36384;DHT22;22418;51.210;6.976;2023-02-01T06:12:26;7.70;99.90
36384;DHT22;22418;51.210;6.976;2023-02-01T06:14:58;7.70;99.90
36384;DHT22;22418;51.210;6.976;2023-02-01T06:17:29;7.80;99.90
36384;DHT22;22418;51.210;6.976;2023-02-01T06:20:00;7.80;99.90
36384;DHT22;22418;51.210;6.976;2023-02-01T06:22:30;7.80;99.90
36384;DHT22;22418;51.210;6.976;2023-02-01T06:25:01;7.70;99.90
36384;DHT22;22418;51.210;6.976;2023-02-01T06:27:32;7.70;99.90
36384;DHT22;22418;51.210;6.976;2023-02-01T06:30:04;7.80;99.90
36384;DHT22;22418;51.210;6.976;2023-02-01T06:32:35;7.80;99.90
36384;DHT22;22418;51.210;6.976;2023-02-01T06:35:07;7.80;99.90
36384;DHT22;22418;51.210;6.976;2023-02-01T06:37:38;7.70;99.90
36384;DHT22;22418;51.210;6.976;2023-02-01T06:40:09;7.70;99.90
36384;DHT22;22418;51.210;6.976;2023-02-01T06:42:40;7.80;99.90
36384;DHT22;22418;51.210;6.976;2023-02-01T06:45:10;7.80;99.90
36384;DHT22;22418;51.210;6.976;2023-02-01T06:47:41;7.80;99.90
36384;DHT22;22418;51.210;6.976;2023-02-01T06:50:12;7.90;99.90
36384;DHT22;22418;51.210;6.976;2023-02-01T06:52:43;7.90;99.90
36384;DHT22;22418;51.210;6.976;2023-02-01T06:55:13;7.80;99.90
36384;DHT22;22418;51.210;6.976;2023-02-01T06:57:44;7.90;99.90
36384;DHT22;22418;51.210;6.976;2023-02-01T07:00:15;7.90;99.90
36384;DHT22;22418;51.210;6.976;2023-02-01T07:02:45;7.90;99.90
36384;DHT22;22418;51.210;6.976;2023-02-01T07:05:16;7.90;99.90
36384;DHT22;22418;51.210;6.976;2023-02-01T07:07:47;7.80;99.90
36384;DHT22;22418;51.210;6.976;2023-02-01T07:10:18;7.80;99.90
36384;DHT22;22418;51.210;6.976;2023-02-01T07:12:48;7.80;99.90
36384;DHT22;22418;51.210;6.976;2023-02-01T07:15:19;7.80;99.90
36384;DHT22;22418;51.210;6.976;2023-02-01T07:17:49;7.90;99.90
36384;DHT22;22418;51.210;6.976;2023-02-01T07:20:20;7.90;99.90
36384;DHT22;22418;51.210;6.976;2023-02-01T07:22:55;7.90;99.90
36384;DHT22;22418;51.210;6.976;2023-02-01T07:25:26;8.00;99.90
36384;DHT22;22418;51.210;6.976;2023-02-01T07:27:57;8.00;99.90
36384;DHT22;22418;51.210;6.976;2023-02-01T07:30:28;8.00;99.90
36384;DHT22;22418;51.210;6.976;2023-02-01T07:32:58;8.00;99.90
36384;DHT22;22418;51.210;6.976;2023-02-01T07:35:31;8.00;99.90
36384;DHT22;22418;51.210;6.976;2023-02-01T07:38:01;8.00;99.90
36384;DHT22;22418;51.210;6.976;2023-02-01T07:40:32;8.00;99.90
36384;DHT22;22418;51.210;6.976;2023-02-01T07:43:03;8.00;99.90
36384;DHT22;22418;51.210;6.976;2023-02-01T07:45:36;8.00;99.90
36384;DHT22;22418;51.210;6.976;2023-02-01T07:48:07;8.00;99.90
36384;DHT22;22418;51.210;6.976;2023-02-01T07:50:37;8.00;99.90
36384;DHT22;22418;51.210;6.976;2023-02-01T07:53:08;8.10;99.90
36384;DHT22;22418;51.210;6.976;2023-02-01T07:55:39;8.00;99.90
36384;DHT22;22418;51.210;6.976;2023-02-01T07:58:10;8.00;99.90
36384;DHT22;22418;51.210;6.976;2023-02-01T08:00:40;8.10;99.90
36384;DHT22;22418;51.210;6.976;2023-02-01T08:03:29;8.10;99.90
36384;DHT22;22418;51.210;6.976;2023-02-01T08:06:00;8.10;99.90
36384;DHT22;22418;51.210;6.976;2023-02-01T08:08:30;7.90;99.90
36384;DHT22;22418;51.210;6.976;2023-02-01T08:11:03;7.90;99.90
36384;DHT22;22418;51.210;6.976;2023-02-01T08:13:34;7.90;99.90
36384;DHT22;22418;51.210;6.976;2023-02-01T08:16:07;8.00;99.90
36384;DHT22;22418;51.210;6.976;2023-02-01T08:18:39;7.90;99.90
36384;DHT22;22418;51.210;6.976;2023-02-01T08:23:46;8.10;99.90
36384;DHT22;22418;51.210;6.976;2023-02-01T08:26:19;8.10;99.90
36384;DHT22;22418;51.210;6.976;2023-02-01T08:28:56;8.20;99.90
36384;DHT22;22418;51.210;6.976;2023-02-01T08:31:28;8.20;99.90
36384;DHT22;22418;51.210;6.976;2023-02-01T08:34:00;8.10;99.90
36384;DHT22;22418;51.210;6.976;2023-02-01T08:36:32;8.20;99.90
36384;DHT22;22418;51.210;6.976;2023-02-01T08:39:03;8.00;99.90
36384;DHT22;22418;51.210;6.976;2023-02-01T08:41:36;8.10;99.90
36384;DHT22;22418;51.210;6.976;2023-02-01T08:44:06;8.10;99.90
36384;DHT22;22418;51.210;6.976;2023-02-01T08:46:37;8.10;99.90
36384;DHT22;22418;51.210;6.976;2023-02-01T08:49:07;8.20;99.90
36384;DHT22;22418;51.210;6.976;2023-02-01T08:51:38;8.20;99.90
36384;DHT22;22418;51.210;6.976;2023-02-01T08:54:08;8.20;99.90
36384;DHT22;22418;51.210;6.976;2023-02-01T08:56:39;8.30;99.90
36384;DHT22;22418;51.210;6.976;2023-02-01T08:59:09;8.30;99.90
36384;DHT22;22418;51.210;6.976;2023-02-01T09:01:40;8.30;99.90
36384;DHT22;22418;51.210;6.976;2023-02-01T09:04:10;8.30;99.90
36384;DHT22;22418;51.210;6.976;2023-02-01T09:06:41;8.20;99.90
36384;DHT22;22418;51.210;6.976;2023-02-01T09:09:11;8.30;99.90
36384;DHT22;22418;51.210;6.976;2023-02-01T09:11:42;8.30;99.90
36384;DHT22;22418;51.210;6.976;2023-02-01T09:14:13;8.20;99.90
36384;DHT22;22418;51.210;6.976;2023-02-01T09:16:43;8.20;99.90
36384;DHT22;22418;51.210;6.976;2023-02-01T09:19:14;8.40;99.90
36384;DHT22;22418;51.210;6.976;2023-02-01T09:21:45;8.40;99.90
36384;DHT22;22418;51.210;6.976;2023-02-01T09:24:15;8.40;99.90
36384;DHT22;22418;51.210;6.976;2023-02-01T09:26:46;8.40;99.90
36384;DHT22;22418;51.210;6.976;2023-02-01T09:29:16;8.40;99.90
36384;DHT22;22418;51.210;6.976;2023-02-01T09:31:47;8.40;99.90
36384;DHT22;22418;51.210;6.976;2023-02-01T09:34:18;8.70;99.90
36384;DHT22;22418;51.210;6.976;2023-02-01T09:36:48;8.90;99.90
36384;DHT22;22418;51.210;6.976;2023-02-01T09:39:19;9.10;99.90
36384;DHT22;22418;51.210;6.976;2023-02-01T09:47:19;9.00;99.90
36384;DHT22;22418;51.210;6.976;2023-02-01T09:50:00;9.00;99.90
36384;DHT22;22418;51.210;6.976;2023-02-01T09:52:42;9.00;99.90
36384;DHT22;22418;51.210;6.976;2023-02-01T09:55:23;9.00;99.90
36384;DHT22;22418;51.210;6.976;2023-02-01T09:58:00;8.90;99.90
36384;DHT22;22418;51.210;6.976;2023-02-01T10:00:37;8.90;99.90
36384;DHT22;22418;51.210;6.976;2023-02-01T10:03:12;8.70;99.90
36384;DHT22;22418;51.210;6.976;2023-02-01T10:06:05;8.60;99.90
36384;DHT22;22418;51.210;6.976;2023-02-01T10:14:39;8.60;99.90
36384;DHT22;22418;51.210;6.976;2023-02-01T10:17:25;8.40;99.90
36384;DHT22;22418;51.210;6.976;2023-02-01T10:20:23;8.50;99.90
36384;DHT22;22418;51.210;6.976;2023-02-01T10:25:56;8.50;99.90
36384;DHT22;22418;51.210;6.976;2023-02-01T10:28:30;8.50;99.90
36384;DHT22;22418;51.210;6.976;2023-02-01T10:31:03;8.50;99.90
36384;DHT22;22418;51.210;6.976;2023-02-01T10:33:39;8.50;99.90
36384;DHT22;22418;51.210;6.976;2023-02-01T10:36:40;8.40;99.90
36384;DHT22;22418;51.210;6.976;2023-02-01T10:39:12;8.30;99.90
36384;DHT22;22418;51.210;6.976;2023-02-01T10:41:44;8.50;99.90
36384;DHT22;22418;51.210;6.976;2023-02-01T10:44:23;8.50;99.90
36384;DHT22;22418;51.210;6.976;2023-02-01T10:46:55;8.50;99.90
36384;DHT22;22418;51.210;6.976;2023-02-01T10:49:37;8.60;99.90
36384;DHT22;22418;51.210;6.976;2023-02-01T10:52:15;8.60;99.90
36384;DHT22;22418;51.210;6.976;2023-02-01T10:54:47;8.60;99.90
36384;DHT22;22418;51.210;6.976;2023-02-01T10:57:25;8.60;99.90
36384;DHT22;22418;51.210;6.976;2023-02-01T10:59:56;8.50;99.90
36384;DHT22;22418;51.210;6.976;2023-02-01T11:02:31;8.50;99.90
36384;DHT22;22418;51.210;6.976;2023-02-01T11:05:05;8.60;99.90
36384;DHT22;22418;51.210;6.976;2023-02-01T11:07:46;8.60;99.90
36384;DHT22;22418;51.210;6.976;2023-02-01T11:10:39;8.80;99.90
36384;DHT22;22418;51.210;6.976;2023-02-01T11:13:15;8.60;99.90
36384;DHT22;22418;51.210;6.976;2023-02-01T11:15:47;8.60;99.90
36384;DHT22;22418;51.210;6.976;2023-02-01T11:18:30;8.70;99.90
36384;DHT22;22418;51.210;6.976;2023-02-01T11:21:01;8.70;99.90
36384;DHT22;22418;51.210;6.976;2023-02-01T11:23:32;8.70;99.90
36384;DHT22;22418;51.210;6.976;2023-02-01T11:26:24;8.80;99.90
36384;DHT22;22418;51.210;6.976;2023-02-01T11:29:04;8.80;99.90
36384;DHT22;22418;51.210;6.976;2023-02-01T11:31:35;8.90;99.90
36384;DHT22;22418;51.210;6.976;2023-02-01T11:34:14;8.70;99.90
36384;DHT22;22418;51.210;6.976;2023-02-01T11:36:47;8.70;99.90
36384;DHT22;22418;51.210;6.976;2023-02-01T11:39:28;8.70;99.90
36384;DHT22;22418;51.210;6.976;2023-02-01T11:42:01;8.80;99.90
36384;DHT22;22418;51.210;6.976;2023-02-01T11:44:37;8.80;99.90
36384;DHT22;22418;51.210;6.976;2023-02-01T11:47:28;8.80;99.90
36384;DHT22;22418;51.210;6.976;2023-02-01T11:50:00;8.80;99.90
36384;DHT22;22418;51.210;6.976;2023-02-01T11:55:45;8.80;99.90
36384;DHT22;22418;51.210;6.976;2023-02-01T11:58:37;8.90;99.90
36384;DHT22;22418;51.210;6.976;2023-02-01T12:01:16;8.90;99.90
36384;DHT22;22418;51.210;6.976;2023-02-01T12:04:13;8.90;99.90
36384;DHT22;22418;51.210;6.976;2023-02-01T12:06:51;8.80;99.90
36384;DHT22;22418;51.210;6.976;2023-02-01T12:09:48;8.80;99.90
36384;DHT22;22418;51.210;6.976;2023-02-01T12:12:25;8.80;99.90
36384;DHT22;22418;51.210;6.976;2023-02-01T12:21:03;8.90;99.90
36384;DHT22;22418;51.210;6.976;2023-02-01T12:29:48;9.00;99.90
36384;DHT22;22418;51.210;6.976;2023-02-01T12:38:32;9.00;99.90
36384;DHT22;22418;51.210;6.976;2023-02-01T12:41:12;9.00;99.90
36384;DHT22;22418;51.210;6.976;2023-02-01T12:46:41;8.90;99.90
36384;DHT22;22418;51.210;6.976;2023-02-01T12:52:20;8.90;99.90
36384;DHT22;22418;51.210;6.976;2023-02-01T12:55:03;8.80;99.90
36384;DHT22;22418;51.210;6.976;2023-02-01T12:57:40;8.90;99.90
36384;DHT22;22418;51.210;6.976;2023-02-01T13:00:18;8.80;99.90
36384;DHT22;22418;51.210;6.976;2023-02-01T13:05:57;8.80;99.90
36384;DHT22;22418;51.210;6.976;2023-02-01T13:11:39;8.90;99.90
36384;DHT22;22418;51.210;6.976;2023-02-01T13:16:43;8.90;99.90
36384;DHT22;22418;51.210;6.976;2023-02-01T13:22:11;9.00;99.90
36384;DHT22;22418;51.210;6.976;2023-02-01T13:24:50;9.00;99.90
36384;DHT22;22418;51.210;6.976;2023-02-01T13:27:22;9.00;99.90
36384;DHT22;22418;51.210;6.976;2023-02-01T13:30:14;8.90;99.90
36384;DHT22;22418;51.210;6.976;2023-02-01T13:33:11;8.90;99.90
36384;DHT22;22418;51.210;6.976;2023-02-01T13:36:25;9.00;99.90
36384;DHT22;22418;51.210;6.976;2023-02-01T13:39:25;9.00;99.90
36384;DHT22;22418;51.210;6.976;2023-02-01T13:42:02;9.00;99.90
36384;DHT22;22418;51.210;6.976;2023-02-01T13:44:40;9.00;99.90
36384;DHT22;22418;51.210;6.976;2023-02-01T13:49:51;9.10;99.90
36384;DHT22;22418;51.210;6.976;2023-02-01T13:52:43;9.10;99.90
36384;DHT22;22418;51.210;6.976;2023-02-01T13:58:09;8.90;99.90
36384;DHT22;22418;51.210;6.976;2023-02-01T14:00:42;9.00;99.90
36384;DHT22;22418;51.210;6.976;2023-02-01T14:03:22;9.00;99.90
36384;DHT22;22418;51.210;6.976;2023-02-01T14:19:26;9.00;99.90
36384;DHT22;22418;51.210;6.976;2023-02-01T14:21:59;9.00;99.90
36384;DHT22;22418;51.210;6.976;2023-02-01T14:24:36;9.00;99.90
36384;DHT22;22418;51.210;6.976;2023-02-01T14:29:54;9.10;99.90
36384;DHT22;22418;51.210;6.976;2023-02-01T14:32:31;9.10;99.90
36384;DHT22;22418;51.210;6.976;2023-02-01T14:35:25;9.00;99.90
36384;DHT22;22418;51.210;6.976;2023-02-01T14:38:00;9.10;99.90
36384;DHT22;22418;51.210;6.976;2023-02-01T14:40:34;9.00;99.90
36384;DHT22;22418;51.210;6.976;2023-02-01T14:43:06;9.00;99.90
36384;DHT22;22418;51.210;6.976;2023-02-01T14:50:47;9.10;99.90
36384;DHT22;22418;51.210;6.976;2023-02-01T14:53:23;9.10;99.90
36384;DHT22;22418;51.210;6.976;2023-02-01T14:56:12;9.10;99.90
36384;DHT22;22418;51.210;6.976;2023-02-01T14:58:58;9.10;99.90
36384;DHT22;22418;51.210;6.976;2023-02-01T15:01:33;9.10;99.90
36384;DHT22;22418;51.210;6.976;2023-02-01T15:04:25;9.10;99.90
36384;DHT22;22418;51.210;6.976;2023-02-01T15:07:07;9.10;99.90
36384;DHT22;22418;51.210;6.976;2023-02-01T15:09:46;9.10;99.90
36384;DHT22;22418;51.210;6.976;2023-02-01T15:12:23;9.20;99.90
36384;DHT22;22418;51.210;6.976;2023-02-01T15:15:14;9.20;99.90
36384;DHT22;22418;51.210;6.976;2023-02-01T15:17:57;9.20;99.90
36384;DHT22;22418;51.210;6.976;2023-02-01T15:20:32;9.30;99.90
36384;DHT22;22418;51.210;6.976;2023-02-01T15:23:04;9.30;99.90
36384;DHT22;22418;51.210;6.976;2023-02-01T15:25:37;9.30;99.90
36384;DHT22;22418;51.210;6.976;2023-02-01T15:28:15;9.30;99.90
36384;DHT22;22418;51.210;6.976;2023-02-01T15:30:59;9.30;99.90
36384;DHT22;22418;51.210;6.976;2023-02-01T15:33:30;9.20;99.90
36384;DHT22;22418;51.210;6.976;2023-02-01T15:36:08;9.20;99.90
36384;DHT22;22418;51.210;6.976;2023-02-01T15:38:41;9.20;99.90
36384;DHT22;22418;51.210;6.976;2023-02-01T15:41:22;9.20;99.90
36384;DHT22;22418;51.210;6.976;2023-02-01T15:46:42;9.10;99.90
36384;DHT22;22418;51.210;6.976;2023-02-01T15:51:58;9.10;99.90
36384;DHT22;22418;51.210;6.976;2023-02-01T15:57:08;9.10;99.90
36384;DHT22;22418;51.210;6.976;2023-02-01T15:59:44;9.20;99.90
36384;DHT22;22418;51.210;6.976;2023-02-01T16:02:36;9.10;99.90
36384;DHT22;22418;51.210;6.976;2023-02-01T16:05:38;9.20;99.90
36384;DHT22;22418;51.210;6.976;2023-02-01T16:08:19;9.10;99.90
36384;DHT22;22418;51.210;6.976;2023-02-01T16:10:53;9.10;99.90
36384;DHT22;22418;51.210;6.976;2023-02-01T16:13:23;9.10;99.90
36384;DHT22;22418;51.210;6.976;2023-02-01T16:15:54;9.20;99.90
36384;DHT22;22418;51.210;6.976;2023-02-01T16:18:25;9.20;99.90
36384;DHT22;22418;51.210;6.976;2023-02-01T16:20:56;9.10;99.90
36384;DHT22;22418;51.210;6.976;2023-02-01T16:23:26;9.20;99.90
36384;DHT22;22418;51.210;6.976;2023-02-01T16:25:57;9.20;99.90
36384;DHT22;22418;51.210;6.976;2023-02-01T16:28:28;9.20;99.90
36384;DHT22;22418;51.210;6.976;2023-02-01T16:30:59;9.30;99.90
36384;DHT22;22418;51.210;6.976;2023-02-01T16:33:30;9.30;99.90
36384;DHT22;22418;51.210;6.976;2023-02-01T16:36:01;9.20;99.90
36384;DHT22;22418;51.210;6.976;2023-02-01T16:38:32;9.10;99.90
36384;DHT22;22418;51.210;6.976;2023-02-01T16:41:04;9.10;99.90
36384;DHT22;22418;51.210;6.976;2023-02-01T16:43:35;9.00;99.90
36384;DHT22;22418;51.210;6.976;2023-02-01T16:46:16;9.00;99.90
36384;DHT22;22418;51.210;6.976;2023-02-01T16:48:55;9.00;99.90
36384;DHT22;22418;51.210;6.976;2023-02-01T16:51:30;9.00;99.90
36384;DHT22;22418;51.210;6.976;2023-02-01T16:54:02;9.00;99.90
36384;DHT22;22418;51.210;6.976;2023-02-01T16:56:34;9.00;99.90
36384;DHT22;22418;51.210;6.976;2023-02-01T16:59:06;9.00;99.90
36384;DHT22;22418;51.210;6.976;2023-02-01T17:01:38;9.00;99.90
36384;DHT22;22418;51.210;6.976;2023-02-01T17:04:10;9.00;99.90
36384;DHT22;22418;51.210;6.976;2023-02-01T17:06:41;9.00;99.90
36384;DHT22;22418;51.210;6.976;2023-02-01T17:09:11;9.10;99.90
36384;DHT22;22418;51.210;6.976;2023-02-01T17:11:42;9.20;99.90
36384;DHT22;22418;51.210;6.976;2023-02-01T17:14:19;9.10;99.90
36384;DHT22;22418;51.210;6.976;2023-02-01T17:16:51;9.20;99.90
36384;DHT22;22418;51.210;6.976;2023-02-01T17:19:23;9.10;99.90
36384;DHT22;22418;51.210;6.976;2023-02-01T17:21:55;9.00;99.90
36384;DHT22;22418;51.210;6.976;2023-02-01T17:24:30;8.90;99.90
36384;DHT22;22418;51.210;6.976;2023-02-01T17:27:00;9.00;99.90
36384;DHT22;22418;51.210;6.976;2023-02-01T17:29:31;9.00;99.90
36384;DHT22;22418;51.210;6.976;2023-02-01T17:32:02;8.90;99.90
36384;DHT22;22418;51.210;6.976;2023-02-01T17:34:32;9.00;99.90
36384;DHT22;22418;51.210;6.976;2023-02-01T17:37:05;9.10;99.90
36384;DHT22;22418;51.210;6.976;2023-02-01T17:39:36;9.10;99.90
36384;DHT22;22418;51.210;6.976;2023-02-01T17:42:26;9.10;99.90
36384;DHT22;22418;51.210;6.976;2023-02-01T17:47:45;9.20;99.90
36384;DHT22;22418;51.210;6.976;2023-02-01T17:50:17;9.20;99.90
36384;DHT22;22418;51.210;6.976;2023-02-01T17:52:47;9.10;99.90
36384;DHT22;22418;51.210;6.976;2023-02-01T17:55:19;9.30;99.90
36384;DHT22;22418;51.210;6.976;2023-02-01T17:57:52;9.30;99.90
36384;DHT22;22418;51.210;6.976;2023-02-01T18:00:23;9.20;99.90
36384;DHT22;22418;51.210;6.976;2023-02-01T18:02:53;9.20;99.90
36384;DHT22;22418;51.210;6.976;2023-02-01T18:05:40;9.20;99.90
36384;DHT22;22418;51.210;6.976;2023-02-01T18:08:12;9.20;99.90
36384;DHT22;22418;51.210;6.976;2023-02-01T18:10:43;9.20;99.90
36384;DHT22;22418;51.210;6.976;2023-02-01T18:13:14;9.30;99.90
36384;DHT22;22418;51.210;6.976;2023-02-01T18:15:44;9.30;99.90
36384;DHT22;22418;51.210;6.976;2023-02-01T18:18:15;9.30;99.90
36384;DHT22;22418;51.210;6.976;2023-02-01T18:20:46;9.30;99.90
36384;DHT22;22418;51.210;6.976;2023-02-01T18:23:20;9.20;99.90
36384;DHT22;22418;51.210;6.976;2023-02-01T18:25:51;9.30;99.90
36384;DHT22;22418;51.210;6.976;2023-02-01T18:28:22;9.30;99.90
36384;DHT22;22418;51.210;6.976;2023-02-01T18:30:52;9.30;99.90